Tropical Cyclones
[Index]
Main Index Home Page Stock Weather Photos Extreme Storms Discussion Storm News and Storm Chasing Reports Tropical Cyclones / Hurricanes / Typhoons Weather Data and Links Wild Fires / Bushfires Weather Observation Techniques Weather Picture Catalogue Tornado Pictures and Reports Stock Video Footage and DVDs for sale
Season 2014-2015 Tropical Cyclone OLA Track Map
Season 2014-2015 Summaries: [BoM-AU] [JTWC-AU] [JTWC-SIO] [JTWC-SPAC] [JTWC-SH]
<<- Previous TC | JTWC 2014-2015 Season | Next TC ->>

click for intensity scale information  Lat/long Grid: Show Hide

 Date Labels: Show Hide

Joint Typhoon Warning Centre Cyclone Data

Name: OLA

29 Jan 2015 18:00 UTC to 03 Feb 2015 12:00 UTC

    date/time    lat    long     hPa   cat  kts
2015-01-29 18   16.1   161.4    1007         20          
2015-01-30 00   16.4   161.4    1000         30          
2015-01-30 06   16.7   161.4    1000         30          
2015-01-30 12   17.0   161.5     997         30          
2015-01-30 18   17.2   161.5     996         35          
2015-01-31 00   17.5   161.6     989    1    45          
2015-01-31 06   17.8   161.7     989    1    45          
2015-01-31 12   18.3   161.9     982    2    55          
2015-01-31 12   18.3   161.9     982    2    55          
2015-01-31 18   19.0   162.1     974    2    65          
2015-01-31 18   19.0   162.1     974    2    65          
2015-02-01 00   19.8   162.2     970    2    70          
2015-02-01 00   19.8   162.2     970    2    70          
2015-02-01 00   19.8   162.2     970    2    70          
2015-02-01 06   20.5   162.3     967    3    75          
2015-02-01 06   20.5   162.3     967    3    75          
2015-02-01 06   20.5   162.3     967    3    75          
2015-02-01 12   20.9   162.4     959    3    85          
2015-02-01 12   20.9   162.4     959    3    85          
2015-02-01 12   20.9   162.4     959    3    85          
2015-02-01 18   21.7   162.3     970    2    70          
2015-02-01 18   21.7   162.3     970    2    70          
2015-02-01 18   21.7   162.3     970    2    70          
2015-02-02 00   22.6   161.9     978    2    60          
2015-02-02 00   22.6   161.9     978    2    60          
2015-02-02 06   23.2   162.0     978    2    60          
2015-02-02 06   23.2   162.0     978    2    60          
2015-02-02 12   24.2   162.0     978    2    60          
2015-02-02 12   24.2   162.0     978    2    60          
2015-02-02 18   25.6   162.0     982    2    55          
2015-02-02 18   25.6   162.0     982    2    55          
2015-02-03 00   26.7   162.0     985    1    50          
2015-02-03 06   27.9   162.1     989    1    45          
2015-02-03 12   29.2   162.3     996         35          
Winds are 1-min average.

Tropical cyclone tracks developed by Michael Bath using data from the Joint Typhoon Warning Centre Best Tracks and Google Maps.


[Australian Severe Weather index] [Copyright Notice] [Email Contacts] [Search This Site] [Privacy Policy]
Document: tropical_cyclone_ola.htm Updated: 28 June 2017